• Join FlightAware (Why Join?)
  • Login
  • US Flag 
03:35PM EST


 

Airport Tracker/Info


-or-


 

Live Flight TrackerFlight Track Log ✈ AAL1938 ✈ 24-Apr-2013 ✈ KMIA - KTPA

Flight Track Log - Related Links

Times and Time Zones

All times are in EDT time to prevent confusion due to time zone crossing. See the AAL1938 flight status page for this flight to view local times or setup timezone preferences in your user account.

Time Position Orientation Groundspeed Altitude Reporting Facility
EDT Latitude Longitude Course Direction KTS MPH feet Rate Location/Type
11:47AM 25.8030 -80.2570 76° East 150 173 1,100  Level FlightAware
11:48AM 25.8060 -80.2310 83° East 180 207 2,000 2,100 Climbing FlightAware
11:48AM 25.8090 -80.2010 84° East 205 236 3,200 2,160 Climbing FlightAware
11:49AM 25.8180 -80.1760 68° East 236 272 4,000 1,800 Climbing FlightAware
11:49AM 25.8320 -80.1640 38° Northeast 264 304 4,400 2,160 Climbing FlightAware
11:49AM 25.8500 -80.1600 11° North 271 312 5,100 3,300 Climbing FlightAware
11:49AM 25.8820 -80.1670 349° North 276 318 6,600 3,240 Climbing FlightAware
11:50AM 25.9200 -80.1780 345° North 289 333 8,100 3,180 Climbing FlightAware
11:50AM 25.9550 -80.1980 333° Northwest 294 338 9,800 2,820 Climbing FlightAware
11:51AM 25.9830 -80.2190 326° Northwest 318 366 10,700 2,820 Climbing FlightAware
11:51AM 26.0020 -80.2640 295° West 323 372 12,400 3,060 Climbing FlightAware
11:52AM 26.0160 -80.3250 284° West 340 391 14,300 2,400 Climbing FlightAware
11:53AM 26.0440 -80.4470 284° West 356 410 16,800 1,560 Climbing FlightAware
11:54AM 26.0690 -80.5590 284° West 355 409 17,900 2,520 Climbing FlightAware
11:56AM 26.1260 -80.6750 299° West 336 387 22,800 2,280 Climbing FlightAware
11:57AM 26.2220 -80.7740 317° Northwest 333 383 24,000 420 Climbing FlightAware
11:58AM 26.3020 -80.8550 318° Northwest 328 377 24,000  Level FlightAware
11:59AM 26.3380 -80.8940 316° Northwest 328 377 24,000  Level FlightAware
11:59AM 26.3750 -80.9340 316° Northwest 328 377 24,000  Level FlightAware
12:01PM 26.4710 -81.0280 319° Northwest 350 403 24,000  Level FlightAware
12:01PM 26.5320 -81.0890 318° Northwest 375 432 24,000  Level FlightAware
12:03PM 26.6550 -81.2160 317° Northwest 372 428 24,000  Level FlightAware
12:05PM 26.8460 -81.4120 318° Northwest 378 435 24,000  Level FlightAware
12:06PM 26.9200 -81.5010 313° West 377 434 24,000  Level FlightAware
12:07PM 26.9710 -81.5600 314° West 376 433 24,000 -600 Level FlightAware
12:08PM 27.0330 -81.6340 313° West 345 397 23,100 -1,020 Descending FlightAware
12:09PM 27.1090 -81.7240 314° West 343 395 21,900 -1,020 Descending FlightAware
12:10PM 27.1400 -81.7610 313° West 343 395 21,400 -1,680 Descending FlightAware
12:11PM 27.2540 -81.8970 313° West 340 391 18,000 -2,280 Descending FlightAware
12:13PM 27.3340 -81.9930 313° West 357 411 14,800 -2,700 Descending FlightAware
12:13PM 27.3850 -82.0540 313° West 350 403 13,100 -2,280 Descending FlightAware
12:14PM 27.4290 -82.1060 314° West 344 396 11,600 -1,680 Descending FlightAware
12:15PM 27.4770 -82.1640 313° West 333 383 10,800 -600 Descending FlightAware
12:15PM 27.5190 -82.2140 313° West 317 365 10,800  Level FlightAware
12:16PM 27.5510 -82.2530 313° West 328 377 10,800  Level FlightAware
12:17PM 27.5910 -82.3010 313° West 326 375 10,800 -180 Level FlightAware
12:17PM 27.6330 -82.3520 313° West 302 348 10,600 -780 Descending FlightAware
12:18PM 27.6600 -82.3840 314° West 295 339 9,900 -1,620 Descending FlightAware
12:18PM 27.6900 -82.4170 316° Northwest 293 337 9,000 -1,680 Descending FlightAware
12:18PM 27.7030 -82.4220 341° North 294 338 8,800 -1,200 Descending FlightAware
12:19PM 27.7130 -82.4220 360° North 291 335 8,600 -1,440 Descending FlightAware
12:19PM 27.7430 -82.4220 360° North 289 333 8,100 -1,560 Descending FlightAware
12:19PM 27.7830 -82.4200 North 285 328 7,300 -1,440 Descending FlightAware
12:20PM 27.8150 -82.4200 360° North 279 321 6,800 -1,080 Descending FlightAware
12:20PM 27.8330 -82.4190 North 275 316 6,600 -1,500 Descending FlightAware
12:21PM 27.8730 -82.4180 North 275 316 5,700 -1,680 Descending FlightAware
12:21PM 27.9040 -82.4170 North 275 316 5,100 -1,020 Descending FlightAware
12:21PM 27.9410 -82.4170 360° North 271 312 4,800 -420 Descending FlightAware
12:22PM 27.9800 -82.4160 North 270 311 4,700 -900 Descending FlightAware
12:22PM 28.0120 -82.4150 North 273 314 4,000 -1,200 Descending FlightAware
12:23PM 28.0470 -82.4130 North 262 302 3,600 -660 Descending FlightAware
12:23PM 28.0770 -82.4160 355° North 247 284 3,400 -600 Descending FlightAware
12:24PM 28.1100 -82.4200 354° North 230 265 3,100 -660 Descending FlightAware
12:24PM 28.1360 -82.4230 354° North 229 264 2,800 -360 Descending FlightAware
12:25PM 28.1610 -82.4260 354° North 215 247 2,800  Level FlightAware
12:25PM 28.1840 -82.4290 353° North 206 237 2,800  Level FlightAware
12:25PM 28.2010 -82.4430 324° Northwest 205 236 2,800  Level FlightAware
12:26PM 28.2030 -82.4700 275° West 206 237 2,800  Level FlightAware
12:26PM 28.2010 -82.5080 267° West 207 238 2,800  Level FlightAware
12:27PM 28.1990 -82.5230 261° West 199 229 2,800  Level FlightAware
12:27PM 28.1900 -82.5330 224° Southwest 180 207 2,800  Level FlightAware
12:27PM 28.1810 -82.5340 186° South 176 203 2,800  Level FlightAware
12:28PM 28.1580 -82.5360 184° South 169 194 2,800 -300 Level FlightAware
12:28PM 28.1330 -82.5370 182° South 167 192 2,500 -660 Descending FlightAware
12:28PM 28.1160 -82.5370 180° South 170 196 2,200 -780 Descending FlightAware
12:29PM 28.0940 -82.5380 182° South 165 190 1,800 -900 Descending FlightAware
12:29PM 28.0740 -82.5390 183° South 152 175 1,400 -900 Descending FlightAware
12:30PM 28.0540 -82.5390 180° South 146 168 1,000 -900 Descending FlightAware
12:30PM 28.0450 -82.5400 186° South 143 165 800 -720 Descending FlightAware
12:30PM 28.0300 -82.5400 180° South 142 163 600 -660 Descending FlightAware
12:31PM 28.0100 -82.5410 183° South 141 162 200 -480 Descending FlightAware
12:31PM 27.9950 -82.5410 180° South 141 162 200  Level FlightAware